New Bedford, Illinois
Current Conditions -  °F | °C
As of 10:55 PM on Thursday 30 Oct 2014 (Local Time) from KSQI Reporting Station
Overcast Overcast  
Wind Chill: 44°   Ceiling: 5000
Heat Index: 46°   Visibility: 10mi
Dew Point: 37°   Wind: 6mph
Humidity: 71%   Direction: 300°WNW
Pressure: 30.09"   Gusts: NA
Location:  41.51°N, 89.72°W
Report Text: KSQI 310355Z AUTO 30005KT 10SM OVC050 08/03 A3009 RMK AO1
Loading
Personal Weather Stations






























Interactive Weather Map
Tropical Storm Tracking
New forecast layout! Learn more

10-Day Weather Forecast

Advertisements
Track Severe Weather on mobile